Time;durP1;ratioP1;P1;durP2;ratioP2;P2;SDS_P1;SDS_P2;PMS_P1;PMS_P2;Temp;Humidity;BMP_temperature;BMP_pressure;BME280_temperature;BME280_humidity;BME280_pressure;Samples;Min_cycle;Max_cycle;Signal;HPM_P1;HPM_P2
2023/09/14 00:01:23;;;;;;;4.00;3.33;;;;;;;;;;4956027;29;20344;-35
2023/09/14 00:03:51;;;;;;;3.93;3.50;;;;;;;;;;4952697;29;20219;-34
2023/09/14 00:06:18;;;;;;;3.63;3.33;;;;;;;;;;4955273;29;20217;-35
2023/09/14 00:08:47;;;;;;;3.10;2.90;;;;;;;;;;4956027;28;20288;-35
2023/09/14 00:11:14;;;;;;;4.23;3.80;;;;;;;;;;4949237;29;20201;-36
2023/09/14 00:13:41;;;;;;;3.80;3.50;;;;;;;;;;4956568;29;20205;-35
2023/09/14 00:16:08;;;;;;;2.87;2.67;;;;;;;;;;4956182;29;20201;-36
2023/09/14 00:18:35;;;;;;;4.80;3.33;;;;;;;;;;4947745;29;20224;-37
2023/09/14 00:21:03;;;;;;;3.00;2.70;;;;;;;;;;4948171;29;20252;-35
2023/09/14 00:23:30;;;;;;;3.13;2.90;;;;;;;;;;4954511;29;20300;-36
2023/09/14 00:25:59;;;;;;;4.00;3.47;;;;;;;;;;4946372;29;20256;-38
2023/09/14 00:28:26;;;;;;;3.33;3.03;;;;;;;;;;4948888;29;20293;-33
2023/09/14 00:30:53;;;;;;;3.80;3.40;;;;;;;;;;4955841;28;20225;-35
2023/09/14 00:33:21;;;;;;;2.87;2.67;;;;;;;;;;4954015;29;20213;-37
2023/09/14 00:35:48;;;;;;;3.90;3.07;;;;;;;;;;4943277;29;20223;-35
2023/09/14 00:38:16;;;;;;;3.90;3.50;;;;;;;;;;4955227;29;20670;-37
2023/09/14 00:40:43;;;;;;;4.50;3.13;;;;;;;;;;4950265;28;20557;-33
2023/09/14 00:43:12;;;;;;;4.10;3.30;;;;;;;;;;4955372;29;20244;-38
2023/09/14 00:45:39;;;;;;;4.83;3.23;;;;;;;;;;4955143;29;20220;-36
2023/09/14 00:48:07;;;;;;;3.67;3.23;;;;;;;;;;4949191;29;20204;-36
2023/09/14 00:50:35;;;;;;;3.23;2.87;;;;;;;;;;4955395;29;20225;-37
2023/09/14 00:53:03;;;;;;;3.30;3.00;;;;;;;;;;4955434;29;20296;-35
2023/09/14 00:55:30;;;;;;;3.90;3.60;;;;;;;;;;4944175;29;20291;-34
2023/09/14 00:57:58;;;;;;;3.90;3.47;;;;;;;;;;4954720;29;20291;-34
2023/09/14 01:00:26;;;;;;;4.70;3.80;;;;;;;;;;4952503;28;20292;-37
2023/09/14 01:02:56;;;;;;;5.67;3.60;;;;;;;;;;4950404;28;20217;-36
2023/09/14 01:05:24;;;;;;;5.67;3.20;;;;;;;;;;4954846;29;20205;-36
2023/09/14 01:07:51;;;;;;;4.07;3.70;;;;;;;;;;4954628;29;20212;-33
2023/09/14 01:10:18;;;;;;;4.27;3.50;;;;;;;;;;4944964;29;20231;-35
2023/09/14 01:12:47;;;;;;;3.80;3.37;;;;;;;;;;4953719;29;20233;-36
2023/09/14 01:15:19;;;;;;;3.23;2.93;;;;;;;;;;4954862;29;20205;-34
2023/09/14 01:17:53;;;;;;;4.03;3.63;;;;;;;;;;4954290;29;20211;-35
2023/09/14 01:20:35;;;;;;;5.67;3.33;;;;;;;;;;4953269;28;20224;-34
2023/09/14 01:23:10;;;;;;;3.60;3.30;;;;;;;;;;4923369;29;20215;-36
2023/09/14 01:25:43;;;;;;;3.17;2.97;;;;;;;;;;4938517;29;20235;-35
2023/09/14 01:28:12;;;;;;;4.30;3.60;;;;;;;;;;4951464;28;20311;-34
2023/09/14 01:30:39;;;;;;;3.90;3.50;;;;;;;;;;4954484;28;20228;-37
2023/09/14 01:33:07;;;;;;;4.07;3.00;;;;;;;;;;4953281;29;20208;-35
2023/09/14 01:35:37;;;;;;;3.10;2.90;;;;;;;;;;4952603;29;20489;-35
2023/09/14 01:38:05;;;;;;;3.40;3.10;;;;;;;;;;4954256;29;20216;-36
2023/09/14 01:40:33;;;;;;;2.90;2.70;;;;;;;;;;4951910;29;20227;-34
2023/09/14 01:43:01;;;;;;;3.33;3.03;;;;;;;;;;4949851;29;20260;-36
2023/09/14 01:45:29;;;;;;;3.27;2.97;;;;;;;;;;4953309;29;20275;-37
2023/09/14 01:47:57;;;;;;;4.65;3.50;;;;;;;;;;4953416;29;20212;-36
2023/09/14 01:50:24;;;;;;;3.37;3.07;;;;;;;;;;4947663;28;20243;-35
2023/09/14 01:52:52;;;;;;;2.90;2.70;;;;;;;;;;4952764;29;20219;-36
2023/09/14 01:55:19;;;;;;;4.70;3.10;;;;;;;;;;4951415;29;20268;-38
2023/09/14 01:57:47;;;;;;;3.57;3.27;;;;;;;;;;4953701;29;20204;-37
2023/09/14 02:00:16;;;;;;;4.63;3.53;;;;;;;;;;4954451;29;20224;-37
2023/09/14 02:02:43;;;;;;;4.03;3.50;;;;;;;;;;4951373;28;20247;-38
2023/09/14 02:05:11;;;;;;;4.33;2.80;;;;;;;;;;4953850;29;20206;-35
2023/09/14 02:07:38;;;;;;;3.30;3.00;;;;;;;;;;4954280;29;20236;-33
2023/09/14 02:10:06;;;;;;;3.63;3.33;;;;;;;;;;4946887;28;20228;-36
2023/09/14 02:12:33;;;;;;;3.70;3.40;;;;;;;;;;4954043;29;20204;-35
2023/09/14 02:15:00;;;;;;;3.57;3.00;;;;;;;;;;4950279;29;20527;-38
2023/09/14 02:17:30;;;;;;;4.20;3.30;;;;;;;;;;4954053;29;20247;-34
2023/09/14 02:19:58;;;;;;;3.50;3.20;;;;;;;;;;4951631;28;20232;-34
2023/09/14 02:22:25;;;;;;;6.30;4.10;;;;;;;;;;4953782;29;20242;-33
2023/09/14 02:24:52;;;;;;;6.33;3.73;;;;;;;;;;4946556;29;20253;-36
2023/09/14 02:27:20;;;;;;;4.70;4.30;;;;;;;;;;4952404;29;20656;-34
2023/09/14 02:29:47;;;;;;;4.57;3.43;;;;;;;;;;4954059;29;20256;-36
2023/09/14 02:32:15;;;;;;;4.50;3.73;;;;;;;;;;4953090;29;20296;-37
2023/09/14 02:34:43;;;;;;;3.50;3.20;;;;;;;;;;4945138;29;20212;-38
2023/09/14 02:37:10;;;;;;;9.03;3.93;;;;;;;;;;4952707;29;20580;-32
2023/09/14 02:39:38;;;;;;;3.73;3.37;;;;;;;;;;4950766;28;20237;-35
2023/09/14 02:42:05;;;;;;;4.93;3.50;;;;;;;;;;4952509;29;20268;-33
2023/09/14 02:44:32;;;;;;;3.93;3.53;;;;;;;;;;4956923;29;20280;-35
2023/09/14 02:46:59;;;;;;;3.77;3.17;;;;;;;;;;4958146;29;20218;-35
2023/09/14 02:49:26;;;;;;;5.53;4.07;;;;;;;;;;4955306;28;20225;-34
2023/09/14 02:51:55;;;;;;;4.50;4.10;;;;;;;;;;4957764;29;20205;-37
2023/09/14 02:54:22;;;;;;;5.27;4.53;;;;;;;;;;4953520;29;20251;-35
2023/09/14 02:56:49;;;;;;;4.23;3.83;;;;;;;;;;4956689;29;20275;-33
2023/09/14 02:59:20;;;;;;;4.57;4.07;;;;;;;;;;4957172;29;20251;-35
2023/09/14 03:01:49;;;;;;;4.67;3.87;;;;;;;;;;4957741;29;20306;-36
2023/09/14 03:04:16;;;;;;;4.13;3.73;;;;;;;;;;4949378;29;20216;-33
2023/09/14 03:06:43;;;;;;;3.90;3.53;;;;;;;;;;4957677;29;20205;-36
2023/09/14 03:09:12;;;;;;;4.30;3.60;;;;;;;;;;4954856;29;20229;-35
2023/09/14 03:11:39;;;;;;;4.23;3.83;;;;;;;;;;4950796;29;20209;-38
2023/09/14 03:14:06;;;;;;;3.40;3.10;;;;;;;;;;4957413;29;20201;-34
2023/09/14 03:16:34;;;;;;;5.43;4.27;;;;;;;;;;4950142;29;20212;-37
2023/09/14 03:19:01;;;;;;;6.37;4.53;;;;;;;;;;4951876;29;20236;-38
2023/09/14 03:21:29;;;;;;;5.53;4.10;;;;;;;;;;4956940;29;20263;-35
2023/09/14 03:23:56;;;;;;;4.47;4.07;;;;;;;;;;4956544;29;20205;-37
2023/09/14 03:26:27;;;;;;;5.37;3.73;;;;;;;;;;4952216;29;20580;-35
2023/09/14 03:28:54;;;;;;;7.77;4.43;;;;;;;;;;4957104;29;20648;-34
2023/09/14 03:31:21;;;;;;;5.80;4.97;;;;;;;;;;4956366;29;20300;-35
2023/09/14 03:33:49;;;;;;;6.57;4.50;;;;;;;;;;4955445;29;20209;-34
2023/09/14 03:38:46;;;;;;;7.60;4.40;;;;;;;;;;4993651;28;20216;-36
2023/09/14 03:41:13;;;;;;;4.17;3.77;;;;;;;;;;4982802;28;20211;-40
2023/09/14 03:43:42;;;;;;;4.07;3.67;;;;;;;;;;4994430;28;20199;-38
2023/09/14 03:46:09;;;;;;;4.43;3.63;;;;;;;;;;4995209;28;20209;-36
2023/09/14 03:48:36;;;;;;;5.30;4.30;;;;;;;;;;4980570;28;20293;-39
2023/09/14 03:51:04;;;;;;;4.70;4.30;;;;;;;;;;4981456;28;20207;-38
2023/09/14 03:53:31;;;;;;;4.70;3.63;;;;;;;;;;4992970;28;20199;-34
2023/09/14 03:56:00;;;;;;;5.83;3.03;;;;;;;;;;4986712;28;20299;-37
2023/09/14 03:58:27;;;;;;;4.70;3.40;;;;;;;;;;4989591;28;20211;-37
2023/09/14 04:00:56;;;;;;;4.43;3.10;;;;;;;;;;4986744;28;20279;-32
2023/09/14 04:03:23;;;;;;;5.50;3.70;;;;;;;;;;4988134;28;20241;-38
2023/09/14 04:05:50;;;;;;;4.40;3.77;;;;;;;;;;4981475;28;20321;-39
2023/09/14 04:08:18;;;;;;;4.33;3.90;;;;;;;;;;4987880;28;20294;-36
2023/09/14 04:10:47;;;;;;;4.30;3.90;;;;;;;;;;4984946;28;20288;-36
2023/09/14 04:13:28;;;;;;;7.97;4.63;;;;;;;;;;4992599;28;20193;-37
2023/09/14 04:15:56;;;;;;;4.23;3.83;;;;;;;;;;4981283;28;20285;-30
2023/09/14 04:18:23;;;;;;;5.63;4.40;;;;;;;;;;4980604;28;20532;-36
2023/09/14 04:20:51;;;;;;;5.00;4.43;;;;;;;;;;4988576;28;20227;-35
2023/09/14 04:23:18;;;;;;;3.70;3.40;;;;;;;;;;4986088;28;20231;-35
2023/09/14 04:25:45;;;;;;;4.13;3.73;;;;;;;;;;4988008;28;20210;-39
2023/09/14 04:28:13;;;;;;;3.50;2.77;;;;;;;;;;4987011;28;20214;-35
2023/09/14 04:30:44;;;;;;;4.93;3.93;;;;;;;;;;4993901;28;20324;-35
2023/09/14 04:33:12;;;;;;;4.10;3.70;;;;;;;;;;4990975;28;20203;-36
2023/09/14 04:35:40;;;;;;;3.93;3.63;;;;;;;;;;4986125;28;20302;-32
2023/09/14 04:38:07;;;;;;;3.10;2.90;;;;;;;;;;4988981;28;20211;-36
2023/09/14 04:40:36;;;;;;;3.30;3.00;;;;;;;;;;4990509;28;20257;-42
2023/09/14 04:43:03;;;;;;;4.40;4.00;;;;;;;;;;4990235;28;20312;-40
2023/09/14 04:45:30;;;;;;;4.27;3.87;;;;;;;;;;4985943;28;20283;-34
2023/09/14 04:47:57;;;;;;;5.87;3.57;;;;;;;;;;4984607;28;20210;-35
2023/09/14 04:50:26;;;;;;;4.77;3.40;;;;;;;;;;4993577;28;20227;-39
2023/09/14 04:52:53;;;;;;;5.50;4.20;;;;;;;;;;4986499;28;20296;-38
2023/09/14 04:55:20;;;;;;;3.13;2.53;;;;;;;;;;4984838;28;20252;-39
2023/09/14 04:57:47;;;;;;;4.60;3.00;;;;;;;;;;4990293;28;20206;-33
2023/09/14 05:00:15;;;;;;;4.07;3.67;;;;;;;;;;4991210;28;20319;-36
2023/09/14 05:02:42;;;;;;;4.83;3.07;;;;;;;;;;4993560;28;20229;-32
2023/09/14 05:05:10;;;;;;;4.23;3.40;;;;;;;;;;4988296;28;20203;-36
2023/09/14 05:07:39;;;;;;;5.00;3.67;;;;;;;;;;4988334;28;20298;-34
2023/09/14 05:10:07;;;;;;;4.27;3.87;;;;;;;;;;4987259;28;20226;-33
2023/09/14 05:12:34;;;;;;;5.70;3.90;;;;;;;;;;4992702;28;20305;-35
2023/09/14 05:15:02;;;;;;;4.47;4.00;;;;;;;;;;4985139;28;20222;-38
2023/09/14 05:17:29;;;;;;;4.00;3.67;;;;;;;;;;4990267;28;20221;-38
2023/09/14 05:19:57;;;;;;;3.73;3.27;;;;;;;;;;4989727;28;20246;-34
2023/09/14 05:22:25;;;;;;;4.13;3.23;;;;;;;;;;4992484;28;20226;-33
2023/09/14 05:24:53;;;;;;;5.63;3.73;;;;;;;;;;4986991;28;20222;-37
2023/09/14 05:27:21;;;;;;;4.43;3.57;;;;;;;;;;4993077;28;20274;-37
2023/09/14 05:29:48;;;;;;;3.47;3.17;;;;;;;;;;4985197;28;20233;-34
2023/09/14 05:32:15;;;;;;;3.57;3.27;;;;;;;;;;4992757;28;20293;-38
2023/09/14 05:34:42;;;;;;;3.53;3.23;;;;;;;;;;4980844;28;20306;-38
2023/09/14 05:37:10;;;;;;;3.27;2.73;;;;;;;;;;4992325;28;20222;-33
2023/09/14 05:39:38;;;;;;;5.07;3.80;;;;;;;;;;4986649;28;20237;-41
2023/09/14 05:42:06;;;;;;;8.47;3.63;;;;;;;;;;4984092;28;20258;-40
2023/09/14 05:44:33;;;;;;;3.57;3.27;;;;;;;;;;4992329;28;20310;-37
2023/09/14 05:47:01;;;;;;;4.73;3.40;;;;;;;;;;4991562;28;20296;-33
2023/09/14 05:49:28;;;;;;;3.47;3.17;;;;;;;;;;4986658;28;20314;-34
2023/09/14 05:51:55;;;;;;;3.40;2.90;;;;;;;;;;4992075;28;20203;-43
2023/09/14 05:54:22;;;;;;;2.60;2.40;;;;;;;;;;4983649;28;20218;-36
2023/09/14 05:56:49;;;;;;;3.67;3.07;;;;;;;;;;4988591;28;20209;-34
2023/09/14 05:59:18;;;;;;;3.50;3.20;;;;;;;;;;4985500;28;20242;-34
2023/09/14 06:01:45;;;;;;;4.67;3.60;;;;;;;;;;4974261;28;20210;-38
2023/09/14 06:04:12;;;;;;;3.57;3.27;;;;;;;;;;4988002;28;20754;-39
2023/09/14 06:06:39;;;;;;;2.90;2.60;;;;;;;;;;4983968;28;20211;-38
2023/09/14 06:09:06;;;;;;;3.73;2.90;;;;;;;;;;4980191;28;20228;-33
2023/09/14 06:11:33;;;;;;;3.87;3.27;;;;;;;;;;4989779;28;20242;-39
2023/09/14 06:14:00;;;;;;;4.13;3.33;;;;;;;;;;4989073;28;20281;-38
2023/09/14 06:16:29;;;;;;;3.60;2.90;;;;;;;;;;4994147;28;20209;-32
2023/09/14 06:18:56;;;;;;;4.10;3.70;;;;;;;;;;4993999;28;20225;-41
2023/09/14 06:21:23;;;;;;;3.67;3.30;;;;;;;;;;4985857;28;20265;-35
2023/09/14 06:23:51;;;;;;;4.33;3.93;;;;;;;;;;4988055;28;20249;-33
2023/09/14 06:26:18;;;;;;;5.30;3.57;;;;;;;;;;4983888;28;20217;-37
2023/09/14 06:28:45;;;;;;;4.43;3.93;;;;;;;;;;4993993;28;20302;-37
2023/09/14 06:31:13;;;;;;;3.87;3.50;;;;;;;;;;4996017;28;20274;-35
2023/09/14 06:33:41;;;;;;;3.20;2.73;;;;;;;;;;4991440;28;20210;-42
2023/09/14 06:36:08;;;;;;;3.87;3.47;;;;;;;;;;4987022;28;20206;-37
2023/09/14 06:38:35;;;;;;;3.70;3.27;;;;;;;;;;4992054;28;20222;-35
2023/09/14 06:41:02;;;;;;;4.30;3.70;;;;;;;;;;4988126;28;20233;-32
2023/09/14 06:43:30;;;;;;;4.67;3.90;;;;;;;;;;4995111;28;20235;-38
2023/09/14 06:45:57;;;;;;;5.10;3.70;;;;;;;;;;4992469;28;20291;-35
2023/09/14 06:48:26;;;;;;;4.70;3.70;;;;;;;;;;4987058;28;20285;-33
2023/09/14 06:50:55;;;;;;;2.73;2.53;;;;;;;;;;4988678;28;20226;-37
2023/09/14 06:53:22;;;;;;;3.40;3.10;;;;;;;;;;4995362;28;20289;-37
2023/09/14 06:55:49;;;;;;;3.83;3.37;;;;;;;;;;4984346;28;20293;-37
2023/09/14 06:58:16;;;;;;;3.67;3.37;;;;;;;;;;4990500;28;20204;-40
2023/09/14 07:00:43;;;;;;;2.90;2.70;;;;;;;;;;4993372;28;20230;-32
2023/09/14 07:03:10;;;;;;;4.53;3.57;;;;;;;;;;4989322;28;20235;-34
2023/09/14 07:05:38;;;;;;;4.17;3.17;;;;;;;;;;4993560;28;20233;-36
2023/09/14 07:08:06;;;;;;;3.60;3.30;;;;;;;;;;4995300;28;20261;-32
2023/09/14 07:10:39;;;;;;;3.20;2.87;;;;;;;;;;4988371;28;20230;-36
2023/09/14 07:13:12;;;;;;;3.80;2.80;;;;;;;;;;4993289;28;20277;-34
2023/09/14 07:15:39;;;;;;;3.10;2.90;;;;;;;;;;4987153;28;20210;-36
2023/09/14 07:18:06;;;;;;;2.80;2.60;;;;;;;;;;4987425;28;20218;-38
2023/09/14 07:20:33;;;;;;;2.73;2.53;;;;;;;;;;4994887;28;20230;-31
2023/09/14 07:23:01;;;;;;;3.40;3.20;;;;;;;;;;4988519;28;20313;-38
2023/09/14 07:25:30;;;;;;;7.80;7.10;;;;;;;;;;4984042;28;20205;-35
2023/09/14 07:27:57;;;;;;;4.53;4.13;;;;;;;;;;4992807;28;20211;-34
2023/09/14 07:30:25;;;;;;;3.67;3.37;;;;;;;;;;4988226;28;20329;-36
2023/09/14 07:32:52;;;;;;;4.97;4.03;;;;;;;;;;4994488;28;20203;-38
2023/09/14 07:35:19;;;;;;;4.03;3.63;;;;;;;;;;4984805;28;20206;-38
2023/09/14 07:37:46;;;;;;;4.97;4.07;;;;;;;;;;4986275;28;20314;-41
2023/09/14 07:40:13;;;;;;;4.03;3.73;;;;;;;;;;4984618;28;20230;-36
2023/09/14 07:42:42;;;;;;;3.83;3.43;;;;;;;;;;4980483;28;20217;-38
2023/09/14 07:45:09;;;;;;;4.97;4.57;;;;;;;;;;4995333;28;20202;-34
2023/09/14 07:47:36;;;;;;;3.90;3.57;;;;;;;;;;4986294;28;20210;-37
2023/09/14 07:50:04;;;;;;;4.70;3.80;;;;;;;;;;4986169;28;20283;-38
2023/09/14 07:52:31;;;;;;;3.83;3.43;;;;;;;;;;4991361;28;20214;-32
2023/09/14 07:54:58;;;;;;;4.27;3.73;;;;;;;;;;4985104;28;20224;-31
2023/09/14 07:57:25;;;;;;;4.53;3.43;;;;;;;;;;4976903;28;20220;-39
2023/09/14 07:59:54;;;;;;;4.87;3.77;;;;;;;;;;4989010;28;20235;-34
2023/09/14 08:02:21;;;;;;;3.60;3.30;;;;;;;;;;4979610;28;20721;-30
2023/09/14 08:04:48;;;;;;;5.97;3.80;;;;;;;;;;4981737;28;20228;-33
2023/09/14 08:07:16;;;;;;;7.70;3.77;;;;;;;;;;4994992;28;20263;-37
2023/09/14 08:09:45;;;;;;;3.67;3.37;;;;;;;;;;4988104;28;20270;-34
2023/09/14 08:12:12;;;;;;;4.47;3.67;;;;;;;;;;4976931;28;20293;-38
2023/09/14 08:14:40;;;;;;;4.20;3.80;;;;;;;;;;4991621;28;20209;-37
2023/09/14 08:17:08;;;;;;;4.13;3.73;;;;;;;;;;4994396;28;20210;-35
2023/09/14 08:19:36;;;;;;;6.40;4.20;;;;;;;;;;4988850;28;20329;-42
2023/09/14 08:22:03;;;;;;;3.90;3.50;;;;;;;;;;4985715;28;20231;-35
2023/09/14 08:24:30;;;;;;;3.57;3.27;;;;;;;;;;4983688;28;20322;-37
2023/09/14 08:26:58;;;;;;;4.47;3.47;;;;;;;;;;4985495;28;20235;-38
2023/09/14 08:29:25;;;;;;;3.67;3.30;;;;;;;;;;4993834;28;20303;-36
2023/09/14 08:31:52;;;;;;;4.07;3.67;;;;;;;;;;4985954;28;20223;-39
2023/09/14 08:34:21;;;;;;;3.97;3.47;;;;;;;;;;4983857;28;20215;-38
2023/09/14 08:36:48;;;;;;;4.07;3.67;;;;;;;;;;4986569;28;20223;-40
2023/09/14 08:39:15;;;;;;;3.97;3.20;;;;;;;;;;4990114;28;20331;-32
2023/09/14 08:41:43;;;;;;;3.77;3.40;;;;;;;;;;4986068;28;20212;-39
2023/09/14 08:44:10;;;;;;;6.72;3.45;;;;;;;;;;4993521;28;20231;-38
2023/09/14 08:46:38;;;;;;;6.50;3.43;;;;;;;;;;4992379;28;20216;-39
2023/09/14 08:49:07;;;;;;;4.10;3.60;;;;;;;;;;4991155;28;20321;-37
2023/09/14 08:51:37;;;;;;;5.00;3.57;;;;;;;;;;4993677;28;20301;-34
2023/09/14 08:54:04;;;;;;;6.87;3.97;;;;;;;;;;4987472;28;20869;-38
2023/09/14 08:56:32;;;;;;;3.53;3.20;;;;;;;;;;4989846;28;20214;-42
2023/09/14 08:59:02;;;;;;;4.20;3.03;;;;;;;;;;4982443;28;20320;-39
2023/09/14 09:01:30;;;;;;;3.47;3.17;;;;;;;;;;4989491;28;20218;-37
2023/09/14 09:03:57;;;;;;;3.33;3.03;;;;;;;;;;4982245;28;20861;-37
2023/09/14 09:06:25;;;;;;;3.47;3.17;;;;;;;;;;4992281;28;20207;-37
2023/09/14 09:08:54;;;;;;;3.27;2.80;;;;;;;;;;4992459;28;20217;-33
2023/09/14 09:11:21;;;;;;;3.50;3.20;;;;;;;;;;4986978;28;20272;-39
2023/09/14 09:13:49;;;;;;;4.50;3.73;;;;;;;;;;4992890;28;20200;-41
2023/09/14 09:16:16;;;;;;;4.20;3.80;;;;;;;;;;4993427;28;20222;-41
2023/09/14 09:19:02;;;;;;;4.17;3.60;;;;;;;;;;4984469;28;20222;-39
2023/09/14 09:21:30;;;;;;;3.00;2.80;;;;;;;;;;4985753;28;20208;-39
2023/09/14 09:23:58;;;;;;;6.33;3.67;;;;;;;;;;4982955;28;20218;-38
2023/09/14 09:26:34;;;;;;;3.40;3.10;;;;;;;;;;4981439;28;20223;-35
2023/09/14 09:29:01;;;;;;;4.77;3.37;;;;;;;;;;4992916;28;20227;-36
2023/09/14 09:31:41;;;;;;;3.83;3.27;;;;;;;;;;4985157;28;20298;-33
2023/09/14 09:34:09;;;;;;;4.23;3.60;;;;;;;;;;4982429;28;20202;-36
2023/09/14 09:36:36;;;;;;;3.60;3.30;;;;;;;;;;4991298;28;20239;-41
2023/09/14 09:39:06;;;;;;;3.67;3.20;;;;;;;;;;4981601;28;20230;-42
2023/09/14 09:44:09;;;;;;;4.30;3.90;;;;;;;;;;4964196;28;20220;-33
2023/09/14 09:46:37;;;;;;;5.20;4.20;;;;;;;;;;4966436;28;20575;-32
2023/09/14 09:49:18;;;;;;;3.20;2.90;;;;;;;;;;4955818;28;20311;-32
2023/09/14 09:51:46;;;;;;;3.53;3.23;;;;;;;;;;4958261;28;20271;-35
2023/09/14 09:54:14;;;;;;;4.73;4.00;;;;;;;;;;4964037;28;20263;-31
2023/09/14 09:56:41;;;;;;;4.87;3.80;;;;;;;;;;4961175;28;20238;-35
2023/09/14 09:59:13;;;;;;;4.17;3.77;;;;;;;;;;4972675;28;20223;-33
2023/09/14 10:01:40;;;;;;;4.00;3.40;;;;;;;;;;4964754;28;20211;-40
2023/09/14 10:04:10;;;;;;;5.17;3.87;;;;;;;;;;4963033;28;20327;-36
2023/09/14 10:06:38;;;;;;;3.87;3.57;;;;;;;;;;4972324;28;20295;-37
2023/09/14 10:09:08;;;;;;;3.93;3.53;;;;;;;;;;4951679;28;20234;-35
2023/09/14 10:11:40;;;;;;;4.27;3.63;;;;;;;;;;4963255;28;20212;-36
2023/09/14 10:14:13;;;;;;;5.83;3.90;;;;;;;;;;4972219;28;20299;-38
2023/09/14 10:16:41;;;;;;;3.33;3.03;;;;;;;;;;4964734;28;20209;-36
2023/09/14 10:19:09;;;;;;;5.50;3.42;;;;;;;;;;4962377;28;20225;-35
2023/09/14 10:21:37;;;;;;;4.93;4.00;;;;;;;;;;4973279;28;20211;-37
2023/09/14 10:24:06;;;;;;;6.17;3.40;;;;;;;;;;4952722;28;20667;-39
2023/09/14 10:26:33;;;;;;;4.47;3.87;;;;;;;;;;4959594;28;20265;-35
2023/09/14 10:29:02;;;;;;;3.13;2.83;;;;;;;;;;4956495;28;20259;-37
2023/09/14 10:31:33;;;;;;;4.93;3.50;;;;;;;;;;4966797;28;20209;-36
2023/09/14 10:34:01;;;;;;;3.60;3.30;;;;;;;;;;4970498;28;20239;-35
2023/09/14 10:36:30;;;;;;;3.63;3.17;;;;;;;;;;4965272;28;20296;-35
2023/09/14 10:38:59;;;;;;;5.63;3.50;;;;;;;;;;4953036;28;20220;-37
2023/09/14 10:41:26;;;;;;;3.30;2.97;;;;;;;;;;4962840;28;20250;-37
2023/09/14 10:43:56;;;;;;;3.08;2.78;;;;;;;;;;4965056;28;20267;-37
2023/09/14 10:46:26;;;;;;;3.87;3.20;;;;;;;;;;4960084;28;20297;-36
2023/09/14 10:48:55;;;;;;;3.40;3.10;;;;;;;;;;4967773;28;20300;-37
2023/09/14 10:51:23;;;;;;;3.33;2.87;;;;;;;;;;4959754;28;20264;-41
2023/09/14 10:53:51;;;;;;;2.88;2.63;;;;;;;;;;4971116;28;20224;-39
2023/09/14 10:56:22;;;;;;;2.97;2.77;;;;;;;;;;4961514;28;20292;-35
2023/09/14 10:58:52;;;;;;;2.80;2.60;;;;;;;;;;4954420;28;20216;-36
2023/09/14 11:01:28;;;;;;;2.83;2.60;;;;;;;;;;4968249;28;20581;-37
2023/09/14 11:04:12;;;;;;;3.45;2.90;;;;;;;;;;4965304;28;20221;-36
2023/09/14 11:06:43;;;;;;;3.10;2.55;;;;;;;;;;4968955;28;20224;-35
2023/09/14 11:09:10;;;;;;;4.80;2.93;;;;;;;;;;4966786;28;20319;-36
2023/09/14 11:11:44;;;;;;;3.70;3.10;;;;;;;;;;4968886;28;20216;-34
2023/09/14 11:14:13;;;;;;;4.20;2.97;;;;;;;;;;4968372;28;20228;-35
2023/09/14 11:16:47;;;;;;;2.97;2.50;;;;;;;;;;4961219;28;20213;-38
2023/09/14 11:19:29;;;;;;;3.10;2.80;;;;;;;;;;4969355;28;20231;-36
2023/09/14 11:21:56;;;;;;;4.50;2.70;;;;;;;;;;4967842;28;20247;-35
2023/09/14 11:24:39;;;;;;;2.80;2.55;;;;;;;;;;4965726;28;20264;-38
2023/09/14 11:27:07;;;;;;;4.13;2.77;;;;;;;;;;4968744;28;20208;-38
2023/09/14 11:29:38;;;;;;;4.17;2.77;;;;;;;;;;4961483;28;20272;-37
2023/09/14 11:32:13;;;;;;;2.65;2.45;;;;;;;;;;4957403;28;20217;-37
2023/09/14 11:34:51;;;;;;;2.85;2.65;;;;;;;;;;4969932;28;20276;-35
2023/09/14 11:37:29;;;;;;;2.37;2.17;;;;;;;;;;4964657;28;20208;-36
2023/09/14 11:40:03;;;;;;;5.40;2.87;;;;;;;;;;4964728;28;20228;-34
2023/09/14 11:42:57;;;;;;;3.13;2.87;;;;;;;;;;4961807;28;20224;-37
2023/09/14 11:45:24;;;;;;;2.83;2.58;;;;;;;;;;4964790;28;20225;-36
2023/09/14 11:51:25;;;;;;;3.07;2.77;;;;;;;;;;4966238;28;20228;-39
2023/09/14 11:56:27;;;;;;;3.60;2.72;;;;;;;;;;4989454;28;20338;-33
2023/09/14 11:58:58;;;;;;;3.73;2.70;;;;;;;;;;4985954;28;20240;-36
2023/09/14 12:01:25;;;;;;;4.73;2.83;;;;;;;;;;4989900;28;20232;-33
2023/09/14 12:03:53;;;;;;;2.92;2.50;;;;;;;;;;4990580;28;20206;-30
2023/09/14 12:06:20;;;;;;;3.37;2.50;;;;;;;;;;4995141;28;20215;-35
2023/09/14 12:08:48;;;;;;;2.58;2.35;;;;;;;;;;4995092;28;20235;-34
2023/09/14 12:11:16;;;;;;;2.58;2.15;;;;;;;;;;4982774;28;20204;-37
2023/09/14 12:13:56;;;;;;;2.25;2.15;;;;;;;;;;4991784;28;20208;-37
2023/09/14 12:16:25;;;;;;;3.15;2.17;;;;;;;;;;4995077;28;20208;-37
2023/09/14 12:18:53;;;;;;;2.42;2.05;;;;;;;;;;4986737;28;20220;-39
2023/09/14 12:21:21;;;;;;;3.00;1.95;;;;;;;;;;4982928;28;20208;-35
2023/09/14 12:23:50;;;;;;;2.47;2.28;;;;;;;;;;4993708;28;20204;-34
2023/09/14 12:26:18;;;;;;;2.55;2.35;;;;;;;;;;4986718;28;20206;-34
2023/09/14 12:28:47;;;;;;;2.30;2.10;;;;;;;;;;4975589;28;20671;-38
2023/09/14 12:31:20;;;;;;;2.95;2.30;;;;;;;;;;4987717;28;20204;-34
2023/09/14 12:34:01;;;;;;;3.00;2.33;;;;;;;;;;4996459;28;20254;-36
2023/09/14 12:36:29;;;;;;;2.28;2.17;;;;;;;;;;4991449;28;20204;-35
2023/09/14 12:42:28;;;;;;;1.70;1.60;;;;;;;;;;4988767;28;20266;-38
2023/09/14 12:45:16;;;;;;;1.70;1.60;;;;;;;;;;4986754;28;20282;-38
2023/09/14 12:47:53;;;;;;;2.70;1.83;;;;;;;;;;4994534;28;20262;-36
2023/09/14 12:50:37;;;;;;;1.92;1.83;;;;;;;;;;4977369;28;20282;-37
2023/09/14 12:53:10;;;;;;;2.42;2.30;;;;;;;;;;4986057;28;20204;-37
2023/09/14 12:55:43;;;;;;;2.85;1.92;;;;;;;;;;4984763;28;20223;-37
2023/09/14 12:58:19;;;;;;;2.03;1.88;;;;;;;;;;4992530;28;20207;-35
2023/09/14 13:01:02;;;;;;;1.80;1.70;;;;;;;;;;5006122;28;20254;-35
2023/09/14 13:03:51;;;;;;;2.33;1.77;;;;;;;;;;4987653;28;20242;-34
2023/09/14 13:06:21;;;;;;;2.17;1.95;;;;;;;;;;4994364;28;20227;-38
2023/09/14 13:08:51;;;;;;;2.85;1.88;;;;;;;;;;4986321;28;20207;-38
2023/09/14 13:11:31;;;;;;;2.45;2.08;;;;;;;;;;4982451;28;20234;-35
2023/09/14 13:13:59;;;;;;;1.88;1.70;;;;;;;;;;4984878;28;20210;-38
2023/09/14 13:16:28;;;;;;;1.90;1.80;;;;;;;;;;4987594;28;20713;-36
2023/09/14 13:18:59;;;;;;;1.85;1.75;;;;;;;;;;4984449;28;20242;-37
2023/09/14 13:21:26;;;;;;;1.80;1.70;;;;;;;;;;4985148;28;20216;-35
2023/09/14 13:23:55;;;;;;;6.60;2.05;;;;;;;;;;4985249;28;20211;-35
2023/09/14 13:26:22;;;;;;;2.05;1.85;;;;;;;;;;4979988;28;20228;-37
2023/09/14 13:28:49;;;;;;;1.98;1.60;;;;;;;;;;4993695;28;20208;-38
2023/09/14 13:31:17;;;;;;;2.13;1.50;;;;;;;;;;4994277;28;20208;-35
2023/09/14 13:33:45;;;;;;;1.20;1.17;;;;;;;;;;4985705;28;20236;-35
2023/09/14 13:36:14;;;;;;;1.75;1.52;;;;;;;;;;4991326;28;20266;-38
2023/09/14 13:38:41;;;;;;;1.52;1.42;;;;;;;;;;4985153;28;20230;-36
2023/09/14 13:41:09;;;;;;;2.50;1.70;;;;;;;;;;4989348;28;20656;-39
2023/09/14 13:43:36;;;;;;;1.85;1.75;;;;;;;;;;4987992;28;20649;-37
2023/09/14 13:46:03;;;;;;;1.88;1.77;;;;;;;;;;4993213;28;20227;-35
2023/09/14 13:48:29;;;;;;;2.58;1.50;;;;;;;;;;4987949;28;20247;-36
2023/09/14 13:50:59;;;;;;;2.17;1.65;;;;;;;;;;4990777;28;20231;-38
2023/09/14 13:53:28;;;;;;;2.33;1.30;;;;;;;;;;4993311;28;20207;-33
2023/09/14 13:55:56;;;;;;;1.80;1.70;;;;;;;;;;4984242;28;20212;-38
2023/09/14 13:58:23;;;;;;;2.20;1.98;;;;;;;;;;4992983;28;20242;-36
2023/09/14 14:00:50;;;;;;;1.70;1.60;;;;;;;;;;4993187;28;20310;-38
2023/09/14 14:03:18;;;;;;;2.30;2.10;;;;;;;;;;4985520;28;20227;-37
2023/09/14 14:05:46;;;;;;;3.00;1.67;;;;;;;;;;4985600;28;20228;-34
2023/09/14 14:08:15;;;;;;;1.77;1.50;;;;;;;;;;4991709;28;20215;-36
2023/09/14 14:10:43;;;;;;;1.75;1.50;;;;;;;;;;4981306;28;20294;-38
2023/09/14 14:13:11;;;;;;;2.05;1.60;;;;;;;;;;4983443;28;20208;-35
2023/09/14 14:15:38;;;;;;;1.45;1.35;;;;;;;;;;4988075;28;20209;-34
2023/09/14 14:18:06;;;;;;;1.70;1.60;;;;;;;;;;4988630;28;20214;-36
2023/09/14 14:20:35;;;;;;;3.72;1.75;;;;;;;;;;4993121;28;20231;-38
2023/09/14 14:23:03;;;;;;;1.67;1.58;;;;;;;;;;5001008;28;20211;-34
2023/09/14 14:25:31;;;;;;;2.38;1.20;;;;;;;;;;4986231;28;20323;-36
2023/09/14 14:28:00;;;;;;;1.63;1.52;;;;;;;;;;4989996;28;20261;-37
2023/09/14 14:30:28;;;;;;;1.73;1.48;;;;;;;;;;4993139;28;20617;-34
2023/09/14 14:32:56;;;;;;;2.38;1.80;;;;;;;;;;4984731;28;20216;-37
2023/09/14 14:35:23;;;;;;;1.50;1.40;;;;;;;;;;4986078;28;20231;-35
2023/09/14 14:37:53;;;;;;;1.67;1.50;;;;;;;;;;4988521;28;20209;-37
2023/09/14 14:40:21;;;;;;;4.10;1.40;;;;;;;;;;4991484;28;20247;-35
2023/09/14 14:42:49;;;;;;;1.60;1.50;;;;;;;;;;4984523;28;20222;-38
2023/09/14 14:45:18;;;;;;;2.80;1.70;;;;;;;;;;4996236;28;20247;-38
2023/09/14 14:47:47;;;;;;;1.50;1.40;;;;;;;;;;4991154;28;20211;-39
2023/09/14 14:50:16;;;;;;;1.30;1.20;;;;;;;;;;4980129;28;20342;-35
2023/09/14 14:52:44;;;;;;;1.95;1.33;;;;;;;;;;4990404;28;20217;-38
2023/09/14 14:55:12;;;;;;;2.45;1.40;;;;;;;;;;4982874;28;20263;-34
2023/09/14 14:57:45;;;;;;;2.28;1.35;;;;;;;;;;4983199;28;20287;-36
2023/09/14 15:00:20;;;;;;;1.92;1.40;;;;;;;;;;4989898;28;20291;-38
2023/09/14 15:02:57;;;;;;;2.28;1.40;;;;;;;;;;4986367;28;20203;-37
2023/09/14 15:05:24;;;;;;;1.40;1.30;;;;;;;;;;4981164;28;20235;-35
2023/09/14 15:07:52;;;;;;;1.60;1.50;;;;;;;;;;4992615;28;20236;-36